Time;durP1;ratioP1;P1;durP2;ratioP2;P2;SDS_P1;SDS_P2;PMS_P1;PMS_P2;Temp;Humidity;BMP_temperature;BMP_pressure;BME280_temperature;BME280_humidity;BME280_pressure;Samples;Min_cycle;Max_cycle;Signal;HPM_P1;HPM_P2
2023/01/25 00:01:54;;;;;;;48.05;37.75;;;0.60;99.90;;;;;;5010181;28;20405;-64
2023/01/25 00:04:21;;;;;;;52.08;40.88;;;0.60;99.90;;;;;;5008821;28;20038;-65
2023/01/25 00:06:47;;;;;;;51.95;40.35;;;0.60;99.90;;;;;;5010220;28;20037;-64
2023/01/25 00:09:14;;;;;;;52.53;40.28;;;0.60;99.90;;;;;;5008996;28;20033;-65
2023/01/25 00:11:41;;;;;;;52.50;40.45;;;0.60;99.90;;;;;;5009824;28;20135;-64
2023/01/25 00:14:06;;;;;;;52.55;40.65;;;0.60;99.90;;;;;;5007216;28;20029;-64
2023/01/25 00:16:32;;;;;;;51.95;40.95;;;0.60;99.90;;;;;;5008776;28;20091;-64
2023/01/25 00:18:58;;;;;;;49.55;39.63;;;0.70;99.90;;;;;;5008720;28;20119;-65
2023/01/25 00:21:25;;;;;;;50.50;39.10;;;0.60;99.90;;;;;;4993112;28;20430;-65
2023/01/25 00:23:51;;;;;;;51.85;40.35;;;0.60;99.90;;;;;;5011398;28;20050;-64
2023/01/25 00:26:18;;;;;;;53.05;40.47;;;0.60;99.90;;;;;;5010774;28;20046;-64
2023/01/25 00:28:50;;;;;;;50.53;39.38;;;0.60;99.90;;;;;;5013587;28;20056;-65
2023/01/25 00:31:25;;;;;;;53.33;40.28;;;0.60;99.90;;;;;;5012998;28;20544;-64
2023/01/25 00:33:59;;;;;;;51.45;40.63;;;0.60;99.90;;;;;;4996291;28;20088;-65
2023/01/25 00:36:39;;;;;;;50.38;40.42;;;0.60;99.90;;;;;;5011531;28;20096;-64
2023/01/25 00:39:05;;;;;;;50.42;39.83;;;0.60;99.90;;;;;;5010698;28;20050;-65
2023/01/25 00:41:31;;;;;;;53.42;41.47;;;0.60;99.90;;;;;;5011452;28;20113;-64
2023/01/25 00:43:57;;;;;;;52.47;40.85;;;0.60;99.90;;;;;;5013367;28;20467;-64
2023/01/25 00:46:23;;;;;;;54.50;40.88;;;0.60;99.90;;;;;;5011412;28;20037;-64
2023/01/25 00:48:53;;;;;;;52.47;39.90;;;0.60;99.90;;;;;;5012404;28;20356;-64
2023/01/25 00:51:19;;;;;;;51.35;40.72;;;0.60;99.90;;;;;;5011368;28;20121;-64
2023/01/25 00:53:45;;;;;;;51.42;40.55;;;0.60;99.90;;;;;;5012170;28;20081;-64
2023/01/25 00:56:10;;;;;;;50.75;38.50;;;0.50;99.90;;;;;;5009180;28;20084;-64
2023/01/25 00:58:36;;;;;;;53.35;40.58;;;0.60;99.90;;;;;;5011462;28;20038;-64
2023/01/25 01:01:02;;;;;;;49.67;40.83;;;0.60;99.90;;;;;;5010864;28;20038;-64
2023/01/25 01:03:28;;;;;;;49.70;38.15;;;0.50;99.90;;;;;;5012882;28;20108;-64
2023/01/25 01:06:06;;;;;;;51.90;40.63;;;0.50;99.90;;;;;;5009321;28;20042;-64
2023/01/25 01:08:33;;;;;;;51.80;40.53;;;0.50;99.90;;;;;;5010170;28;20112;-65
2023/01/25 01:11:04;;;;;;;55.15;41.92;;;0.50;99.90;;;;;;5009488;28;20030;-64
2023/01/25 01:13:30;;;;;;;53.65;42.70;;;0.50;99.90;;;;;;5010042;28;20037;-64
2023/01/25 01:15:56;;;;;;;50.90;41.03;;;0.50;99.90;;;;;;5008823;28;20355;-64
2023/01/25 01:18:22;;;;;;;49.72;40.65;;;0.50;99.90;;;;;;5011856;28;20123;-64
2023/01/25 01:20:52;;;;;;;48.20;39.47;;;0.50;99.90;;;;;;5011201;28;20034;-64
2023/01/25 01:23:19;;;;;;;51.50;39.90;;;0.40;99.90;;;;;;5011059;28;20049;-64
2023/01/25 01:25:45;;;;;;;52.53;41.13;;;0.50;99.90;;;;;;5010011;28;20515;-64
2023/01/25 01:28:11;;;;;;;52.30;39.67;;;0.50;99.90;;;;;;5010242;28;20042;-64
2023/01/25 01:30:37;;;;;;;51.95;40.38;;;0.50;99.90;;;;;;4993587;28;20418;-64
2023/01/25 01:33:03;;;;;;;51.38;41.22;;;0.50;99.90;;;;;;5009725;28;20050;-64
2023/01/25 01:35:30;;;;;;;50.67;40.33;;;0.50;99.90;;;;;;5010354;28;20044;-64
2023/01/25 01:37:55;;;;;;;53.88;41.35;;;0.50;99.90;;;;;;5011531;28;20046;-64
2023/01/25 01:40:22;;;;;;;52.10;40.15;;;0.50;99.90;;;;;;5009078;28;20045;-64
2023/01/25 01:43:01;;;;;;;52.42;41.65;;;0.50;99.90;;;;;;5010202;28;20058;-64
2023/01/25 01:45:43;;;;;;;52.42;40.58;;;0.50;99.90;;;;;;4994776;28;20049;-64
2023/01/25 01:48:23;;;;;;;55.53;41.95;;;0.50;99.90;;;;;;5011579;28;20120;-64
2023/01/25 01:50:52;;;;;;;52.97;40.92;;;0.50;99.90;;;;;;5009505;28;20489;-64
2023/01/25 01:53:20;;;;;;;53.05;42.13;;;0.50;99.90;;;;;;5011393;28;20092;-64
2023/01/25 01:55:46;;;;;;;50.15;40.92;;;0.50;99.90;;;;;;5010986;28;20116;-64
2023/01/25 01:58:12;;;;;;;51.25;41.08;;;0.50;99.90;;;;;;4993841;28;20128;-64
2023/01/25 02:00:40;;;;;;;54.15;41.92;;;0.50;99.90;;;;;;5011585;28;20049;-65
2023/01/25 02:03:08;;;;;;;54.65;41.58;;;0.50;99.90;;;;;;5012540;28;20060;-66
2023/01/25 02:05:34;;;;;;;54.30;42.72;;;0.50;99.90;;;;;;5011249;28;20485;-65
2023/01/25 02:08:04;;;;;;;51.72;41.47;;;0.50;99.90;;;;;;4994047;28;20045;-65
2023/01/25 02:10:30;;;;;;;52.08;42.45;;;0.50;99.90;;;;;;5009658;28;20045;-65
2023/01/25 02:12:57;;;;;;;52.72;42.25;;;0.50;99.90;;;;;;5012041;28;20421;-65
2023/01/25 02:15:27;;;;;;;50.45;40.97;;;0.50;99.90;;;;;;5009480;28;20239;-65
2023/01/25 02:17:53;;;;;;;51.47;41.90;;;0.50;99.90;;;;;;5010674;28;20169;-65
2023/01/25 02:20:43;;;;;;;52.45;41.58;;;0.50;99.90;;;;;;5006989;28;20156;-65
2023/01/25 02:23:20;;;;;;;54.22;41.30;;;0.40;99.90;;;;;;5009194;28;20049;-65
2023/01/25 02:25:46;;;;;;;51.40;41.75;;;0.40;99.90;;;;;;5009666;28;20050;-65
2023/01/25 02:28:24;;;;;;;53.72;42.72;;;0.40;99.90;;;;;;5009626;28;20040;-65
2023/01/25 02:30:50;;;;;;;55.22;43.80;;;0.40;99.90;;;;;;5010363;28;20042;-65
2023/01/25 02:33:15;;;;;;;57.28;43.80;;;0.40;99.90;;;;;;5007863;28;20485;-65
2023/01/25 02:35:52;;;;;;;57.33;44.55;;;0.40;99.90;;;;;;5009988;28;20052;-65
2023/01/25 02:38:20;;;;;;;52.47;42.75;;;0.30;99.90;;;;;;5006472;28;20034;-65
2023/01/25 02:40:55;;;;;;;52.08;42.22;;;0.30;99.90;;;;;;4985482;28;20093;-65
2023/01/25 02:43:22;;;;;;;55.70;42.67;;;0.30;99.90;;;;;;5009663;28;20303;-65
2023/01/25 02:45:55;;;;;;;54.45;41.85;;;0.30;99.90;;;;;;5010241;28;20049;-65
2023/01/25 02:48:21;;;;;;;55.75;42.75;;;0.30;99.90;;;;;;5007472;28;20104;-65
2023/01/25 02:50:46;;;;;;;55.45;42.45;;;0.30;99.90;;;;;;5010717;28;20542;-65
2023/01/25 02:53:12;;;;;;;53.00;41.83;;;0.30;99.90;;;;;;5009277;28;20037;-65
2023/01/25 02:55:38;;;;;;;53.63;42.13;;;0.30;99.90;;;;;;5009237;28;20117;-65
2023/01/25 02:58:03;;;;;;;54.22;42.13;;;0.30;99.90;;;;;;5009076;28;20045;-65
2023/01/25 03:00:29;;;;;;;55.53;42.60;;;0.30;99.90;;;;;;5008758;28;20038;-65
2023/01/25 03:02:55;;;;;;;54.45;42.80;;;0.30;99.90;;;;;;5010384;28;20033;-65
2023/01/25 03:05:20;;;;;;;54.78;42.38;;;0.30;99.90;;;;;;5008913;28;20036;-65
2023/01/25 03:07:47;;;;;;;51.38;40.92;;;0.30;99.90;;;;;;4991812;28;20048;-65
2023/01/25 03:10:12;;;;;;;52.05;41.45;;;0.30;99.90;;;;;;5010414;28;20180;-66
2023/01/25 03:12:38;;;;;;;51.97;41.67;;;0.30;99.90;;;;;;5010102;28;20131;-66
2023/01/25 03:15:04;;;;;;;52.50;42.08;;;0.30;99.90;;;;;;4992035;28;20044;-65
2023/01/25 03:17:30;;;;;;;54.00;43.40;;;0.30;99.90;;;;;;5008481;28;20124;-65
2023/01/25 03:19:56;;;;;;;52.33;41.20;;;0.30;99.90;;;;;;5010316;28;20548;-65
2023/01/25 03:22:22;;;;;;;50.30;40.88;;;0.30;99.90;;;;;;5006102;28;20108;-65
2023/01/25 03:24:47;;;;;;;51.05;39.78;;;0.30;99.90;;;;;;5008437;28;20053;-65
2023/01/25 03:27:15;;;;;;;52.25;39.80;;;0.30;99.90;;;;;;5010302;28;20045;-65
2023/01/25 03:29:41;;;;;;;51.72;39.13;;;0.20;99.90;;;;;;5009524;28;20069;-65
2023/01/25 03:32:07;;;;;;;51.60;40.63;;;0.30;99.90;;;;;;5008981;28;20033;-66
2023/01/25 03:34:33;;;;;;;52.00;40.83;;;0.30;99.90;;;;;;5010704;28;20099;-66
2023/01/25 03:36:58;;;;;;;51.90;41.25;;;0.30;99.90;;;;;;4988256;28;20414;-65
2023/01/25 03:39:24;;;;;;;49.08;40.03;;;0.30;99.90;;;;;;5010634;28;20034;-65
2023/01/25 03:41:50;;;;;;;51.95;40.97;;;0.20;99.90;;;;;;5010363;28;20088;-65
2023/01/25 03:44:15;;;;;;;49.63;38.65;;;0.20;99.90;;;;;;5008653;28;20195;-65
2023/01/25 03:46:41;;;;;;;49.97;40.72;;;0.20;99.90;;;;;;5010179;28;20116;-67
2023/01/25 03:49:08;;;;;;;50.25;39.70;;;0.20;99.90;;;;;;5007956;28;20462;-65
2023/01/25 03:51:34;;;;;;;49.58;39.92;;;0.20;99.90;;;;;;5010520;28;20057;-65
2023/01/25 03:54:00;;;;;;;51.75;39.33;;;0.20;99.90;;;;;;5008030;28;20462;-65
2023/01/25 03:56:25;;;;;;;49.55;38.67;;;0.20;99.90;;;;;;5009603;28;20041;-65
2023/01/25 03:58:51;;;;;;;50.45;39.28;;;0.20;99.90;;;;;;4992772;28;20038;-65
2023/01/25 04:01:17;;;;;;;48.88;38.72;;;0.20;99.90;;;;;;5009667;28;20462;-65
2023/01/25 04:03:43;;;;;;;46.13;36.05;;;0.20;99.90;;;;;;5010697;28;20038;-65
2023/01/25 04:06:09;;;;;;;46.25;36.45;;;0.20;99.90;;;;;;5009813;28;20034;-65
2023/01/25 04:08:35;;;;;;;45.63;36.38;;;0.20;99.90;;;;;;5010065;28;20091;-65
2023/01/25 04:11:05;;;;;;;43.13;34.58;;;0.20;99.90;;;;;;4991999;28;20041;-65
2023/01/25 04:13:34;;;;;;;43.28;33.83;;;0.20;99.90;;;;;;5007265;28;20066;-66
2023/01/25 04:16:00;;;;;;;41.65;33.13;;;0.20;99.90;;;;;;5005178;28;20486;-65
2023/01/25 04:18:26;;;;;;;40.88;33.78;;;0.20;99.90;;;;;;4988054;28;20102;-65
2023/01/25 04:20:53;;;;;;;41.15;33.38;;;0.20;99.90;;;;;;5008572;28;20121;-65
2023/01/25 04:23:18;;;;;;;42.88;33.63;;;0.20;99.90;;;;;;5009832;28;20064;-65
2023/01/25 04:26:06;;;;;;;42.58;33.03;;;0.10;99.90;;;;;;5009469;28;20057;-65
2023/01/25 04:28:33;;;;;;;40.08;32.83;;;0.10;99.90;;;;;;4989364;28;20710;-65
2023/01/25 04:30:59;;;;;;;41.88;31.95;;;0.10;99.90;;;;;;5007190;28;20077;-65
2023/01/25 04:33:26;;;;;;;40.60;32.65;;;0.10;99.90;;;;;;5007571;28;20034;-65
2023/01/25 04:35:52;;;;;;;40.67;33.38;;;0.10;99.90;;;;;;5006950;28;20042;-65
2023/01/25 04:38:18;;;;;;;40.13;32.45;;;0.10;99.90;;;;;;5007166;28;20502;-65
2023/01/25 04:40:44;;;;;;;42.03;33.40;;;0.10;99.90;;;;;;5008712;28;20068;-65
2023/01/25 04:43:12;;;;;;;41.28;32.85;;;0.10;99.90;;;;;;5009032;28;20045;-65
2023/01/25 04:45:38;;;;;;;41.08;33.92;;;0.10;99.90;;;;;;5007750;28;20061;-66
2023/01/25 04:48:08;;;;;;;41.13;32.67;;;0.10;99.90;;;;;;5007285;28;20038;-65
2023/01/25 04:50:37;;;;;;;40.45;32.00;;;0.10;99.90;;;;;;5009663;28;20483;-66
2023/01/25 04:53:06;;;;;;;41.10;33.28;;;0.10;99.90;;;;;;5008733;28;20712;-65
2023/01/25 04:55:32;;;;;;;43.28;33.70;;;0.20;99.90;;;;;;5009854;28;20156;-66
2023/01/25 04:57:58;;;;;;;40.40;31.75;;;0.10;99.90;;;;;;5009719;28;20481;-65
2023/01/25 05:00:24;;;;;;;40.95;32.83;;;0.10;99.90;;;;;;4991576;28;20144;-65
2023/01/25 05:02:50;;;;;;;43.47;33.85;;;0.20;99.90;;;;;;4991706;28;20429;-65
2023/01/25 05:05:16;;;;;;;43.35;33.55;;;0.20;99.90;;;;;;5010951;28;20113;-66
2023/01/25 05:07:42;;;;;;;41.80;33.33;;;0.10;99.90;;;;;;5012258;28;20401;-65
2023/01/25 05:10:09;;;;;;;43.95;34.70;;;0.10;99.90;;;;;;4978858;28;20041;-65
2023/01/25 05:12:34;;;;;;;44.97;33.45;;;0.10;99.90;;;;;;5010577;28;20724;-66
2023/01/25 05:15:00;;;;;;;45.38;35.53;;;0.10;99.90;;;;;;5013061;28;20153;-65
2023/01/25 05:17:26;;;;;;;42.05;33.30;;;0.20;99.90;;;;;;5013464;28;20065;-66
2023/01/25 05:19:51;;;;;;;43.00;33.58;;;0.10;99.90;;;;;;5012582;28;20456;-66
2023/01/25 05:22:19;;;;;;;45.63;34.65;;;0.10;99.90;;;;;;4995566;28;20053;-66
2023/01/25 05:24:46;;;;;;;45.83;36.35;;;0.10;99.90;;;;;;5012400;28;20058;-66
2023/01/25 05:27:15;;;;;;;47.58;35.47;;;0.10;99.90;;;;;;5004315;28;20053;-66
2023/01/25 05:29:42;;;;;;;46.67;36.70;;;0.10;99.90;;;;;;5012629;28;20111;-65
2023/01/25 05:32:11;;;;;;;46.70;34.22;;;0.20;99.90;;;;;;4995514;28;20119;-66
2023/01/25 05:34:37;;;;;;;44.08;34.05;;;0.10;99.90;;;;;;5012212;28;20044;-66
2023/01/25 05:37:05;;;;;;;47.58;35.78;;;0.10;99.90;;;;;;5012891;28;20413;-66
2023/01/25 05:39:31;;;;;;;49.80;36.35;;;0.10;99.90;;;;;;5012147;28;20065;-65
2023/01/25 05:41:56;;;;;;;48.40;36.00;;;0.00;99.90;;;;;;5011347;28;20121;-65
2023/01/25 05:44:23;;;;;;;48.40;36.95;;;0.10;99.90;;;;;;5012322;28;20048;-65
2023/01/25 05:46:49;;;;;;;47.47;35.65;;;0.10;99.90;;;;;;5012833;28;20041;-65
2023/01/25 05:49:15;;;;;;;49.58;37.03;;;0.10;99.90;;;;;;5012112;28;20034;-65
2023/01/25 05:51:41;;;;;;;46.90;36.70;;;0.10;99.90;;;;;;5012602;28;20080;-65
2023/01/25 05:54:11;;;;;;;48.28;36.97;;;0.10;99.90;;;;;;5011579;28;20065;-65
2023/01/25 05:56:37;;;;;;;50.47;37.90;;;0.10;99.90;;;;;;5012556;28;20045;-65
2023/01/25 05:59:02;;;;;;;48.80;36.45;;;0.10;99.90;;;;;;5012498;28;20037;-65
2023/01/25 06:01:28;;;;;;;48.22;37.45;;;0.10;99.90;;;;;;5011965;28;20064;-65
2023/01/25 06:03:54;;;;;;;52.83;38.70;;;0.10;99.90;;;;;;5012432;28;20077;-65
2023/01/25 06:06:20;;;;;;;53.45;39.03;;;0.10;99.90;;;;;;4994529;28;20455;-65
2023/01/25 06:08:47;;;;;;;49.20;37.97;;;0.10;99.90;;;;;;5012264;28;20030;-65
2023/01/25 06:11:16;;;;;;;49.58;37.60;;;0.10;99.90;;;;;;5009792;28;20057;-65
2023/01/25 06:13:42;;;;;;;51.88;39.00;;;0.10;99.90;;;;;;5011416;28;20042;-65
2023/01/25 06:16:07;;;;;;;52.63;39.30;;;0.10;99.90;;;;;;5011342;28;20152;-65
2023/01/25 06:18:34;;;;;;;51.72;38.53;;;0.10;99.90;;;;;;5011528;28;20217;-65
2023/01/25 06:21:01;;;;;;;50.20;37.22;;;0.10;99.90;;;;;;5010492;28;20049;-65
2023/01/25 06:23:27;;;;;;;52.67;38.83;;;0.10;99.90;;;;;;5012077;28;20402;-65
2023/01/25 06:26:00;;;;;;;51.00;38.83;;;0.10;99.90;;;;;;5012072;28;20099;-65
2023/01/25 06:28:30;;;;;;;49.67;37.95;;;0.10;99.90;;;;;;5011866;28;20042;-65
2023/01/25 06:30:56;;;;;;;50.35;37.85;;;0.10;99.90;;;;;;5012826;28;20474;-64
2023/01/25 06:33:22;;;;;;;51.85;38.50;;;0.10;99.90;;;;;;4992982;28;20034;-64
2023/01/25 06:35:47;;;;;;;47.65;36.63;;;0.10;99.90;;;;;;5007956;28;20076;-64
2023/01/25 06:38:13;;;;;;;47.28;35.35;;;0.10;99.90;;;;;;5009942;28;20061;-64
2023/01/25 06:40:38;;;;;;;44.90;35.25;;;0.10;99.90;;;;;;5010420;28;20119;-64
2023/01/25 06:43:09;;;;;;;45.47;34.88;;;0.10;99.90;;;;;;5009253;28;20470;-65
2023/01/25 06:45:34;;;;;;;49.00;36.83;;;0.10;99.90;;;;;;5009912;28;20050;-64
2023/01/25 06:48:00;;;;;;;50.55;37.65;;;0.10;99.90;;;;;;5009729;28;20060;-64
2023/01/25 06:50:26;;;;;;;49.53;38.22;;;0.10;99.90;;;;;;4991786;28;20046;-64
2023/01/25 06:52:53;;;;;;;50.85;37.28;;;0.00;99.90;;;;;;5009369;28;20037;-64
2023/01/25 06:55:19;;;;;;;48.35;36.60;;;0.00;99.90;;;;;;4991736;28;20038;-63
2023/01/25 06:57:45;;;;;;;47.95;36.65;;;0.00;99.90;;;;;;5007848;28;20513;-64
2023/01/25 07:00:11;;;;;;;47.53;36.40;;;0.00;99.90;;;;;;5008060;28;20125;-64
2023/01/25 07:02:37;;;;;;;47.30;35.63;;;0.00;99.90;;;;;;5007570;28;20390;-64
2023/01/25 07:05:04;;;;;;;48.40;35.88;;;0.00;99.90;;;;;;5007555;28;20049;-64
2023/01/25 07:07:29;;;;;;;46.13;35.28;;;0.00;99.90;;;;;;5007168;28;20034;-64
2023/01/25 07:09:55;;;;;;;50.97;36.20;;;0.00;99.90;;;;;;5009556;28;20041;-64
2023/01/25 07:12:21;;;;;;;49.13;35.80;;;0.00;99.90;;;;;;5008274;28;20414;-64
2023/01/25 07:14:48;;;;;;;48.38;36.00;;;0.00;99.90;;;;;;5009219;28;20113;-64
2023/01/25 07:17:14;;;;;;;49.17;37.17;;;0.00;99.90;;;;;;5009598;28;20056;-64
2023/01/25 07:19:40;;;;;;;48.22;36.97;;;0.00;99.90;;;;;;5009204;28;20045;-64
2023/01/25 07:22:05;;;;;;;46.40;35.35;;;0.10;99.90;;;;;;5007024;28;20097;-64
2023/01/25 07:24:31;;;;;;;46.67;36.13;;;0.10;99.90;;;;;;5008759;28;20046;-64
2023/01/25 07:26:57;;;;;;;46.60;36.10;;;0.00;99.90;;;;;;5009122;28;20411;-64
2023/01/25 07:29:23;;;;;;;47.55;35.05;;;0.00;99.90;;;;;;5009068;28;20037;-64
2023/01/25 07:31:48;;;;;;;48.15;36.03;;;0.00;99.90;;;;;;5010809;28;20045;-64
2023/01/25 07:34:14;;;;;;;48.50;35.30;;;0.00;99.90;;;;;;5010127;28;20026;-64
2023/01/25 07:36:42;;;;;;;50.10;35.13;;;0.00;99.90;;;;;;5010535;28;20050;-64
2023/01/25 07:39:10;;;;;;;47.63;35.08;;;-0.10;99.90;;;;;;5009474;28;20046;-64
2023/01/25 07:41:36;;;;;;;47.60;35.75;;;-0.10;99.90;;;;;;5010420;28;20126;-64
2023/01/25 07:44:02;;;;;;;46.25;34.60;;;-0.10;99.90;;;;;;5009493;28;20034;-63
2023/01/25 07:46:28;;;;;;;46.75;34.45;;;-0.10;99.90;;;;;;5010470;28;20057;-63
2023/01/25 07:48:54;;;;;;;46.97;34.47;;;0.00;99.90;;;;;;5009425;28;20121;-64
2023/01/25 07:51:21;;;;;;;49.55;36.78;;;-0.10;99.90;;;;;;5009640;28;20041;-63
2023/01/25 07:54:02;;;;;;;46.10;34.83;;;-0.10;99.90;;;;;;5008904;28;20029;-64
2023/01/25 07:56:37;;;;;;;48.45;34.70;;;-0.10;99.90;;;;;;5010205;28;20378;-63
2023/01/25 07:59:03;;;;;;;48.38;36.75;;;-0.10;99.90;;;;;;5007935;28;20046;-64
2023/01/25 08:01:32;;;;;;;50.30;35.88;;;-0.10;99.90;;;;;;5009368;28;20041;-64
2023/01/25 08:03:59;;;;;;;49.05;36.17;;;-0.10;99.90;;;;;;5009717;28;20074;-64
2023/01/25 08:06:37;;;;;;;48.25;36.95;;;-0.10;99.90;;;;;;5010018;28;20069;-64
2023/01/25 08:09:18;;;;;;;49.53;36.33;;;-0.10;99.90;;;;;;5007676;28;20036;-64
2023/01/25 08:11:46;;;;;;;49.03;36.75;;;-0.10;99.90;;;;;;5006994;28;20493;-64
2023/01/25 08:14:11;;;;;;;46.90;35.40;;;-0.10;99.90;;;;;;5009608;28;20121;-65
2023/01/25 08:16:37;;;;;;;49.05;35.88;;;-0.10;99.90;;;;;;5008056;28;20566;-64
2023/01/25 08:19:03;;;;;;;45.28;36.22;;;-0.10;99.90;;;;;;5009643;28;20462;-64
2023/01/25 08:21:32;;;;;;;50.70;37.17;;;-0.10;99.90;;;;;;4992533;28;20462;-64
2023/01/25 08:24:00;;;;;;;47.85;35.22;;;0.00;99.90;;;;;;5008897;28;20046;-64
2023/01/25 08:26:26;;;;;;;46.78;35.50;;;-0.10;99.90;;;;;;4990775;28;20046;-65
2023/01/25 08:28:53;;;;;;;48.15;35.50;;;0.00;99.90;;;;;;4990202;28;20092;-64
2023/01/25 08:31:24;;;;;;;48.97;35.35;;;-0.10;99.90;;;;;;4990297;28;20110;-64
2023/01/25 08:33:50;;;;;;;46.75;34.95;;;-0.10;99.90;;;;;;4989800;28;20053;-65
2023/01/25 08:36:17;;;;;;;46.45;33.95;;;-0.10;99.90;;;;;;4989403;28;20137;-65
2023/01/25 08:38:44;;;;;;;48.75;35.63;;;-0.10;99.90;;;;;;4987912;28;20053;-64
2023/01/25 08:41:20;;;;;;;46.25;34.42;;;-0.10;99.90;;;;;;4975375;28;20121;-64
2023/01/25 08:43:46;;;;;;;47.30;33.22;;;-0.10;99.90;;;;;;4993507;28;20046;-64
2023/01/25 08:46:14;;;;;;;45.00;32.85;;;-0.10;99.90;;;;;;4993989;28;20042;-64
2023/01/25 08:48:40;;;;;;;44.42;33.10;;;0.00;99.90;;;;;;4992816;28;20046;-64
2023/01/25 08:51:12;;;;;;;47.00;34.42;;;-0.10;99.90;;;;;;4993330;28;20038;-64
2023/01/25 08:53:38;;;;;;;46.58;33.33;;;-0.10;99.90;;;;;;4993109;28;20046;-65
2023/01/25 08:56:09;;;;;;;46.58;34.55;;;-0.10;99.90;;;;;;4993783;28;20061;-65
2023/01/25 08:58:41;;;;;;;47.05;33.50;;;0.10;99.90;;;;;;4975288;28;20046;-64
2023/01/25 09:01:09;;;;;;;46.15;33.47;;;-0.10;99.90;;;;;;4972396;28;20091;-66
2023/01/25 09:03:42;;;;;;;46.47;34.75;;;-0.10;99.90;;;;;;4992944;28;20054;-64
2023/01/25 09:06:09;;;;;;;45.83;32.50;;;-0.10;99.90;;;;;;4991640;28;20049;-65
2023/01/25 09:08:36;;;;;;;45.00;33.60;;;-0.10;99.90;;;;;;4992460;28;20108;-65
2023/01/25 09:11:08;;;;;;;45.17;33.67;;;-0.10;99.90;;;;;;4975553;28;20054;-64
2023/01/25 09:13:34;;;;;;;44.95;34.20;;;-0.10;99.90;;;;;;4975611;28;20491;-64
2023/01/25 09:16:01;;;;;;;45.28;33.50;;;-0.10;99.90;;;;;;4993124;28;20043;-64
2023/01/25 09:18:28;;;;;;;45.78;32.78;;;-0.10;99.90;;;;;;4991872;28;20030;-64
2023/01/25 09:20:54;;;;;;;42.22;31.23;;;0.00;99.90;;;;;;4992051;28;20049;-65
2023/01/25 09:23:22;;;;;;;41.53;30.95;;;0.00;99.90;;;;;;4991942;28;20053;-65
2023/01/25 09:25:56;;;;;;;45.05;33.08;;;0.00;99.90;;;;;;5007416;28;20402;-65
2023/01/25 09:28:21;;;;;;;47.75;33.67;;;0.00;99.90;;;;;;5011411;28;20068;-65
2023/01/25 09:30:54;;;;;;;46.53;34.45;;;0.00;99.90;;;;;;4993991;28;20038;-65
2023/01/25 09:33:24;;;;;;;48.20;34.40;;;0.00;99.90;;;;;;5010527;28;20034;-64
2023/01/25 09:35:49;;;;;;;45.40;32.47;;;0.00;99.90;;;;;;5012482;28;20354;-65
2023/01/25 09:38:15;;;;;;;46.33;34.70;;;0.00;99.90;;;;;;5011620;28;20038;-64
2023/01/25 09:40:50;;;;;;;44.63;32.80;;;0.00;99.90;;;;;;4995052;28;20046;-65
2023/01/25 09:43:33;;;;;;;;;;;0.10;99.90;;;;;;5010675;28;20405;-65
2023/01/25 09:46:05;;;;;;;44.97;33.75;;;0.10;99.90;;;;;;5011295;28;19980;-64
2023/01/25 09:48:39;;;;;;;44.45;33.10;;;0.10;99.90;;;;;;4993826;28;20038;-65
2023/01/25 09:51:11;;;;;;;43.97;31.77;;;0.10;99.90;;;;;;4993451;28;20113;-65
2023/01/25 09:53:47;;;;;;;43.83;31.88;;;0.10;99.90;;;;;;5006599;28;20335;-65
2023/01/25 09:56:29;;;;;;;42.05;30.70;;;0.10;99.90;;;;;;5010172;28;20693;-65
2023/01/25 09:59:14;;;;;;;44.70;32.22;;;0.10;99.90;;;;;;5010237;28;20080;-64
2023/01/25 10:02:12;;;;;;;42.42;29.92;;;0.00;99.90;;;;;;5001488;28;20046;-64
2023/01/25 10:04:41;;;;;;;44.17;30.58;;;0.10;99.90;;;;;;5010684;28;20057;-64
2023/01/25 10:07:37;;;;;;;43.03;30.77;;;0.10;99.90;;;;;;5010442;28;20496;-64
2023/01/25 10:10:05;;;;;;;;;;;0.10;99.90;;;;;;4989043;28;20438;-64
2023/01/25 10:12:40;;;;;;;41.92;29.08;;;0.00;99.90;;;;;;5011313;28;20281;-65
2023/01/25 10:15:46;;;;;;;44.83;31.23;;;0.10;99.90;;;;;;5010526;28;20046;-64
2023/01/25 10:18:30;;;;;;;44.05;31.23;;;0.10;99.90;;;;;;5008685;28;20132;-65
2023/01/25 10:21:09;;;;;;;45.28;33.10;;;0.10;99.90;;;;;;5011923;28;20042;-65
2023/01/25 10:23:45;;;;;;;45.40;31.63;;;0.20;99.90;;;;;;4985980;28;20046;-64
2023/01/25 10:26:35;;;;;;;46.28;31.70;;;0.20;99.90;;;;;;5010834;28;20072;-64
2023/01/25 10:29:13;;;;;;;43.92;31.38;;;0.20;99.90;;;;;;4999760;28;20497;-64
2023/01/25 10:31:45;;;;;;;45.55;32.53;;;0.20;99.90;;;;;;4993698;28;20045;-64
2023/01/25 10:34:23;;;;;;;43.38;31.77;;;0.20;99.90;;;;;;4992865;28;20050;-64
2023/01/25 10:36:59;;;;;;;42.67;31.17;;;0.20;99.90;;;;;;5011829;28;20053;-65
2023/01/25 10:39:25;;;;;;;45.25;31.77;;;0.20;99.90;;;;;;4992542;28;20135;-65
2023/01/25 10:42:04;;;;;;;48.33;32.75;;;0.20;99.90;;;;;;5010910;28;20085;-65
2023/01/25 10:44:30;;;;;;;44.55;32.08;;;0.20;99.90;;;;;;5011472;28;20064;-64
2023/01/25 10:47:06;;;;;;;50.05;34.45;;;0.20;99.90;;;;;;4994694;28;20042;-64
2023/01/25 10:49:55;;;;;;;44.97;31.13;;;0.20;99.90;;;;;;4993128;28;20041;-64
2023/01/25 10:52:25;;;;;;;47.50;31.95;;;0.20;99.90;;;;;;4992907;28;20042;-64
2023/01/25 10:55:17;;;;;;;47.28;32.20;;;0.30;99.90;;;;;;5010302;28;20105;-65
2023/01/25 10:57:51;;;;;;;50.22;32.72;;;0.20;99.90;;;;;;5010746;28;20034;-64
2023/01/25 11:00:37;;;;;;;;;;;0.20;99.90;;;;;;5010337;28;20163;-65
2023/01/25 11:03:03;;;;;;;50.90;31.60;;;0.20;99.90;;;;;;5007509;28;19917;-65
2023/01/25 11:05:33;;;;;;;51.30;32.80;;;0.20;99.90;;;;;;5010549;28;20034;-65
2023/01/25 11:08:35;;;;;;;47.00;31.08;;;0.20;99.90;;;;;;4993106;28;20124;-65
2023/01/25 11:11:26;;;;;;;51.63;32.50;;;0.20;99.90;;;;;;5010041;28;20308;-64
2023/01/25 11:13:55;;;;;;;50.08;34.13;;;0.20;99.90;;;;;;5010347;28;20045;-65
2023/01/25 11:16:27;;;;;;;48.97;30.95;;;0.20;99.90;;;;;;5011244;28;20458;-65
2023/01/25 11:18:54;;;;;;;49.15;32.20;;;0.10;99.90;;;;;;5010234;28;20066;-64
2023/01/25 11:21:26;;;;;;;47.67;31.40;;;0.10;99.90;;;;;;5009890;28;20042;-64
2023/01/25 11:24:08;;;;;;;47.60;30.40;;;0.20;99.90;;;;;;5009647;28;20116;-64
2023/01/25 11:26:36;;;;;;;47.58;31.13;;;0.20;99.90;;;;;;5009788;28;20228;-65
2023/01/25 11:29:09;;;;;;;47.42;31.95;;;0.20;99.90;;;;;;5010012;28;20496;-64
2023/01/25 11:31:35;;;;;;;45.22;29.75;;;0.20;99.90;;;;;;5010220;28;20077;-64
2023/01/25 11:34:01;;;;;;;45.60;29.88;;;0.20;99.90;;;;;;4992623;28;20544;-65
2023/01/25 11:36:41;;;;;;;47.70;32.70;;;0.20;99.90;;;;;;5010058;28;20034;-64
2023/01/25 11:39:09;;;;;;;46.33;31.00;;;0.20;99.90;;;;;;4991385;28;20097;-64
2023/01/25 11:42:04;;;;;;;49.53;30.40;;;0.20;99.90;;;;;;5009475;28;20100;-64
2023/01/25 11:44:55;;;;;;;47.78;31.08;;;0.20;99.90;;;;;;4992309;28;20100;-64
2023/01/25 11:47:31;;;;;;;47.38;32.67;;;0.10;99.90;;;;;;5009387;28;20052;-65
2023/01/25 11:50:18;;;;;;;46.85;31.88;;;0.20;99.90;;;;;;4991806;28;20030;-64
2023/01/25 11:52:53;;;;;;;49.13;31.85;;;0.20;99.90;;;;;;5007769;28;20045;-64
2023/01/25 11:55:25;;;;;;;48.08;31.52;;;0.20;99.90;;;;;;5009384;28;20041;-64
2023/01/25 11:57:53;;;;;;;49.40;31.85;;;0.20;99.90;;;;;;5010006;28;20076;-64
2023/01/25 12:00:38;;;;;;;49.60;31.42;;;0.20;99.90;;;;;;5009420;28;20128;-64
2023/01/25 12:03:35;;;;;;;52.08;30.83;;;0.20;99.90;;;;;;5009831;28;20034;-64
2023/01/25 12:06:12;;;;;;;50.90;32.42;;;0.20;99.90;;;;;;5008561;28;20042;-64
2023/01/25 12:08:50;;;;;;;48.88;31.10;;;0.10;99.90;;;;;;5005813;28;20448;-65
2023/01/25 12:11:44;;;;;;;51.85;32.03;;;0.20;99.90;;;;;;5006908;28;20034;-64
2023/01/25 12:14:33;;;;;;;46.50;29.35;;;0.20;99.90;;;;;;5009421;28;20044;-64
2023/01/25 12:17:35;;;;;;;58.22;35.13;;;0.20;99.90;;;;;;5013146;28;20045;-64
2023/01/25 12:20:09;;;;;;;49.00;31.60;;;0.20;99.90;;;;;;5012114;28;20207;-64
2023/01/25 12:23:17;;;;;;;52.55;31.65;;;0.20;99.90;;;;;;5011931;28;20112;-64
2023/01/25 12:25:51;;;;;;;48.60;29.55;;;0.20;99.90;;;;;;4995751;28;20061;-64
2023/01/25 12:28:37;;;;;;;48.50;29.80;;;0.30;99.90;;;;;;5013969;28;20046;-64
2023/01/25 12:31:45;;;;;;;48.33;29.92;;;0.30;99.90;;;;;;5013912;28;20049;-65
2023/01/25 12:34:23;;;;;;;50.20;29.75;;;0.30;99.90;;;;;;4994057;28;20033;-64
2023/01/25 12:36:50;;;;;;;54.47;30.23;;;0.20;99.90;;;;;;5011345;28;20483;-65
2023/01/25 12:39:30;;;;;;;51.67;32.05;;;0.30;99.90;;;;;;5009746;28;20053;-65
2023/01/25 12:42:21;;;;;;;54.17;32.13;;;0.40;99.90;;;;;;5011657;28;20057;-64
2023/01/25 12:45:03;;;;;;;56.70;33.53;;;0.30;99.90;;;;;;5010231;28;20291;-64
2023/01/25 12:47:56;;;;;;;56.30;31.83;;;0.30;99.90;;;;;;5011640;28;20030;-65
2023/01/25 12:50:41;;;;;;;54.63;31.77;;;0.30;99.90;;;;;;4983510;28;20041;-64
2023/01/25 12:53:18;;;;;;;53.67;32.85;;;0.30;99.90;;;;;;4991619;28;20310;-64